createdAt,value
2022-11-14T00:00:56.481Z,101970.97
2022-11-14T00:03:23.042Z,101969.13
2022-11-14T00:05:49.565Z,101970.13
2022-11-14T00:08:17.663Z,101972.81
2022-11-14T00:10:46.070Z,101976.47
2022-11-14T00:13:12.723Z,101977.22
2022-11-14T00:15:39.210Z,101972.81
2022-11-14T00:18:06.171Z,101972.81
2022-11-14T00:20:32.801Z,101970.97
2022-11-14T00:22:59.281Z,101972.69
2022-11-14T00:25:25.874Z,101976.25
2022-11-14T00:27:52.377Z,101977.13
2022-11-14T00:30:18.992Z,101975.38
2022-11-14T00:32:45.485Z,101985.09
2022-11-14T00:35:11.934Z,101986.91
2022-11-14T00:37:38.626Z,101986.16
2022-11-14T00:40:05.632Z,101990.06
2022-11-14T00:42:32.085Z,101989.31
2022-11-14T00:44:58.539Z,101998.31
2022-11-14T00:47:25.118Z,101993.13
2022-11-14T00:49:51.718Z,101993.38
2022-11-14T00:52:18.207Z,101996.19
2022-11-14T00:54:44.717Z,101981.84
2022-11-14T00:57:11.199Z,101980.84
2022-11-14T00:59:37.673Z,101978.16
2022-11-14T01:02:04.120Z,101978.06
2022-11-14T01:04:30.678Z,101975.25
2022-11-14T01:06:57.232Z,101970.69
2022-11-14T01:09:23.872Z,101967.03
2022-11-14T01:11:50.422Z,101971.81
2022-11-14T01:14:16.876Z,101966.41
2022-11-14T01:16:43.374Z,101962.72
2022-11-14T01:19:09.963Z,101962.72
2022-11-14T01:21:36.649Z,101960.91
2022-11-14T01:24:03.202Z,101968.13
2022-11-14T01:26:29.677Z,101967.25
2022-11-14T01:28:56.410Z,101963.72
2022-11-14T01:31:24.457Z,101960.03
2022-11-14T01:33:54.878Z,101955.38
2022-11-14T01:36:21.706Z,101955.25
2022-11-14T01:38:52.455Z,101956.13
2022-11-14T01:41:18.967Z,101954.53
2022-11-14T01:43:45.559Z,101943.00
2022-11-14T01:46:23.260Z,101940.78
2022-11-14T01:48:58.988Z,101941.75
2022-11-14T01:51:33.381Z,101945.31
2022-11-14T01:54:03.168Z,101942.63
2022-11-14T01:56:32.876Z,101936.84
2022-11-14T01:59:07.018Z,101943.94
2022-11-14T02:01:41.211Z,101945.53
2022-11-14T02:04:11.650Z,101951.81
2022-11-14T02:06:40.925Z,101946.53
2022-11-14T02:09:08.137Z,101939.41
2022-11-14T02:11:41.229Z,101939.91
2022-11-14T02:14:08.069Z,101938.63
2022-11-14T02:16:34.817Z,101936.19
2022-11-14T02:19:01.324Z,101948.16
2022-11-14T02:21:27.817Z,101947.88
2022-11-14T02:23:54.326Z,101950.28
2022-11-14T02:26:22.015Z,101943.75
2022-11-14T02:28:48.603Z,101937.44
2022-11-14T02:31:15.440Z,101931.66
2022-11-14T02:33:42.455Z,101941.03
2022-11-14T02:36:09.456Z,101927.81
2022-11-14T02:38:36.286Z,101934.91
2022-11-14T02:41:03.566Z,101935.63
2022-11-14T02:43:30.040Z,101938.34
2022-11-14T02:45:58.234Z,101932.00
2022-11-14T02:48:28.291Z,101931.84
2022-11-14T02:50:54.995Z,101931.66
2022-11-14T02:53:21.494Z,101926.91
2022-11-14T02:55:48.151Z,101927.66
2022-11-14T02:58:14.644Z,101924.97
2022-11-14T03:01:05.987Z,101920.88
2022-11-14T03:03:27.561Z,101912.84
2022-11-14T03:05:59.118Z,101919.75
2022-11-14T03:08:25.686Z,101916.75
2022-11-14T03:10:52.232Z,101914.69
2022-11-14T03:13:18.666Z,101918.72
2022-11-14T03:15:45.646Z,101917.97
2022-11-14T03:18:12.299Z,101917.31
2022-11-14T03:20:39.131Z,101924.00
2022-11-14T03:23:05.863Z,101918.84
2022-11-14T03:25:32.476Z,101911.97
2022-11-14T03:27:58.951Z,101918.53
2022-11-14T03:30:25.412Z,101915.28
2022-11-14T03:32:51.931Z,101916.28
2022-11-14T03:35:18.453Z,101915.28
2022-11-14T03:37:44.969Z,101924.88
2022-11-14T03:40:11.908Z,101921.13
2022-11-14T03:42:38.391Z,101914.66
2022-11-14T03:45:05.471Z,101922.50
2022-11-14T03:47:32.146Z,101919.59
2022-11-14T03:49:58.661Z,101921.22
2022-11-14T03:52:26.146Z,101921.00
2022-11-14T03:54:52.726Z,101921.84
2022-11-14T03:57:19.236Z,101919.91
2022-11-14T03:59:45.695Z,101920.75
2022-11-14T04:02:12.264Z,101914.63
2022-11-14T04:04:38.753Z,101909.25
2022-11-14T04:07:06.368Z,101911.84
2022-11-14T04:09:32.849Z,101907.31
2022-11-14T04:11:59.363Z,101901.94
2022-11-14T04:14:25.862Z,101909.75
2022-11-14T04:16:52.352Z,101903.75
2022-11-14T04:19:18.846Z,101912.69
2022-11-14T04:21:45.371Z,101906.22
2022-11-14T04:24:11.872Z,101901.69
2022-11-14T04:26:38.349Z,101906.97
2022-11-14T04:29:04.978Z,101908.91
2022-11-14T04:31:31.489Z,101904.50
2022-11-14T04:33:58.000Z,101914.41
2022-11-14T04:36:24.490Z,101910.34
2022-11-14T04:38:50.981Z,101909.03
2022-11-14T04:41:17.463Z,101910.22
2022-11-14T04:43:49.492Z,101912.31
2022-11-14T04:46:17.309Z,101919.81
2022-11-14T04:48:43.797Z,101919.63
2022-11-14T04:51:10.242Z,101916.50
2022-11-14T04:53:36.733Z,101910.69
2022-11-14T04:56:03.302Z,101910.69
2022-11-14T04:58:30.198Z,101917.06
2022-11-14T05:00:58.220Z,101916.28
2022-11-14T05:03:25.346Z,101919.09
2022-11-14T05:05:51.972Z,101918.22
2022-11-14T05:08:18.466Z,101926.28
2022-11-14T05:10:45.863Z,101923.59
2022-11-14T05:13:12.733Z,101923.38
2022-11-14T05:15:39.278Z,101923.19
2022-11-14T05:18:05.890Z,101929.41
2022-11-14T05:20:32.445Z,101927.47
2022-11-14T05:22:59.019Z,101939.19
2022-11-14T05:25:25.598Z,101938.34
2022-11-14T05:27:52.240Z,101941.03
2022-11-14T05:30:19.195Z,101934.69
2022-11-14T05:32:45.798Z,101943.72
2022-11-14T05:35:12.454Z,101942.84
2022-11-14T05:37:39.086Z,101947.47
2022-11-14T05:40:06.639Z,101951.78
2022-11-14T05:42:33.171Z,101949.84
2022-11-14T05:44:59.725Z,101952.34
2022-11-14T05:47:26.337Z,101958.56
2022-11-14T05:49:52.916Z,101971.16
2022-11-14T05:52:19.467Z,101969.66
2022-11-14T05:54:46.183Z,101970.06
2022-11-14T05:57:12.692Z,101965.97
2022-11-14T05:59:39.179Z,101971.00
2022-11-14T06:02:05.777Z,101967.03
2022-11-14T06:04:32.338Z,101959.28
2022-11-14T06:06:58.892Z,101972.81
2022-11-14T06:09:25.398Z,101964.94
2022-11-14T06:11:51.888Z,101973.13
2022-11-14T06:14:18.714Z,101967.94
2022-11-14T06:16:45.256Z,101967.94
2022-11-14T06:19:11.720Z,101977.75
2022-11-14T06:21:38.400Z,101977.44
2022-11-14T06:24:05.367Z,101974.66
2022-11-14T06:26:32.918Z,101976.25
2022-11-14T06:28:59.578Z,101974.44
2022-11-14T06:31:26.789Z,101974.44
2022-11-14T06:33:53.514Z,101973.25
2022-11-14T06:36:20.098Z,101980.16
2022-11-14T06:38:46.666Z,101988.66
2022-11-14T06:41:13.125Z,101987.47
2022-11-14T06:43:41.569Z,101988.13
2022-11-14T06:46:10.390Z,101988.66
2022-11-14T06:48:37.535Z,101999.97
2022-11-14T06:51:04.931Z,101989.00
2022-11-14T06:53:33.419Z,101993.19
2022-11-14T06:56:04.288Z,101993.97
2022-11-14T06:58:33.640Z,102002.59
2022-11-14T07:01:13.846Z,102001.50
2022-11-14T07:03:41.197Z,102005.81
2022-11-14T07:06:08.647Z,102016.34
2022-11-14T07:08:35.321Z,102013.53
2022-11-14T07:11:07.731Z,102012.47
2022-11-14T07:13:34.959Z,102014.94
2022-11-14T07:16:02.027Z,102017.31
2022-11-14T07:18:32.507Z,102018.72
2022-11-14T07:21:04.878Z,102016.34
2022-11-14T07:23:32.959Z,102028.41
2022-11-14T07:26:04.577Z,102020.63
2022-11-14T07:28:32.230Z,102021.91
2022-11-14T07:30:59.047Z,102022.25
2022-11-14T07:33:25.603Z,102020.72
2022-11-14T07:35:53.556Z,102022.78
2022-11-14T07:38:20.006Z,102030.31
2022-11-14T07:40:59.849Z,102030.72
2022-11-14T07:43:27.701Z,102028.41
2022-11-14T07:45:56.360Z,102035.31
2022-11-14T07:48:23.827Z,102033.13
2022-11-14T07:50:50.307Z,102033.00
2022-11-14T07:53:17.972Z,102031.06
2022-11-14T07:55:44.475Z,102039.91
2022-11-14T07:58:11.421Z,102036.97
2022-11-14T08:00:37.971Z,102031.72
2022-11-14T08:03:07.294Z,102039.78
2022-11-14T08:05:34.051Z,102035.34
2022-11-14T08:08:00.551Z,102038.91
2022-11-14T08:10:31.044Z,102041.75
2022-11-14T08:13:29.838Z,102039.16
2022-11-14T08:15:48.470Z,102038.50
2022-11-14T08:18:14.980Z,102035.81
2022-11-14T08:20:41.496Z,102033.25
2022-11-14T08:23:08.014Z,102034.97
2022-11-14T08:25:34.522Z,102035.06
2022-11-14T08:28:01.148Z,102040.44
2022-11-14T08:30:27.780Z,102037.75
2022-11-14T08:32:54.482Z,102041.19
2022-11-14T08:35:22.222Z,102047.22
2022-11-14T08:37:48.934Z,102046.88
2022-11-14T08:40:15.830Z,102050.13
2022-11-14T08:42:42.367Z,102052.22
2022-11-14T08:45:09.228Z,102050.66
2022-11-14T08:47:35.766Z,102053.53
2022-11-14T08:50:02.665Z,102044.00
2022-11-14T08:52:29.217Z,102044.06
2022-11-14T08:54:55.728Z,102047.94
2022-11-14T08:57:22.477Z,102047.22
2022-11-14T08:59:49.037Z,102051.28
2022-11-14T09:02:15.525Z,102049.81
2022-11-14T09:04:42.291Z,102049.22
2022-11-14T09:07:08.972Z,102052.81
2022-11-14T09:09:35.614Z,102055.66
2022-11-14T09:12:02.163Z,102059.47
2022-11-14T09:14:28.676Z,102058.84
2022-11-14T09:16:55.140Z,102059.00
2022-11-14T09:19:21.713Z,102062.06
2022-11-14T09:21:48.234Z,102059.09
2022-11-14T09:24:14.731Z,102065.25
2022-11-14T09:26:41.219Z,102056.06
2022-11-14T09:29:08.862Z,102064.63
2022-11-14T09:31:35.388Z,102066.97
2022-11-14T09:34:01.918Z,102063.06
2022-11-14T09:36:28.486Z,102056.19
2022-11-14T09:38:55.405Z,102058.53
2022-11-14T09:41:41.583Z,102067.97
2022-11-14T09:44:20.692Z,102069.19
2022-11-14T09:46:57.489Z,102068.41
2022-11-14T09:49:27.747Z,102068.66
2022-11-14T09:52:00.822Z,102066.56
2022-11-14T09:54:32.555Z,102068.03
2022-11-14T09:56:58.872Z,102063.06
2022-11-14T09:59:25.731Z,102065.41
2022-11-14T10:01:58.336Z,102061.47
2022-11-14T10:04:54.254Z,102058.22
2022-11-14T10:07:42.394Z,102059.69
2022-11-14T10:10:55.179Z,102055.75
2022-11-14T10:13:39.406Z,102058.09
2022-11-14T10:16:34.568Z,102056.75
2022-11-14T10:19:10.871Z,102052.78
2022-11-14T10:21:51.267Z,102055.94
2022-11-14T10:24:37.976Z,102046.59
2022-11-14T10:27:06.716Z,102051.88
2022-11-14T10:30:18.510Z,102043.63
2022-11-14T10:32:59.551Z,102048.53
2022-11-14T10:35:36.772Z,102051.47
2022-11-14T10:38:18.520Z,102045.50
2022-11-14T10:40:48.561Z,102047.13
2022-11-14T10:43:23.809Z,102041.16
2022-11-14T10:45:53.449Z,102045.91
2022-11-14T10:48:33.038Z,102041.94
2022-11-14T10:51:03.519Z,102038.19
2022-11-14T10:53:49.304Z,102038.09
2022-11-14T10:56:15.803Z,102042.88
2022-11-14T10:58:48.729Z,102041.34
2022-11-14T11:01:40.916Z,102035.56
2022-11-14T11:04:31.465Z,102036.97
2022-11-14T11:07:37.229Z,102039.16
2022-11-14T11:10:22.923Z,102031.13
2022-11-14T11:12:51.721Z,102037.28
2022-11-14T11:15:18.240Z,102035.47
2022-11-14T11:17:56.061Z,102023.19
2022-11-14T11:20:28.837Z,102031.31
2022-11-14T11:23:04.571Z,102023.56
2022-11-14T11:25:33.108Z,102024.63
2022-11-14T11:28:11.531Z,102025.31
2022-11-14T11:30:38.560Z,102020.63
2022-11-14T11:33:42.940Z,102018.94
2022-11-14T11:36:15.817Z,102020.34
2022-11-14T11:38:42.479Z,102008.69
2022-11-14T11:42:06.181Z,102004.84
2022-11-14T11:44:21.306Z,102001.56
2022-11-14T11:46:56.823Z,101996.28
2022-11-14T11:49:53.904Z,102009.34
2022-11-14T11:52:24.001Z,101997.94
2022-11-14T11:55:08.563Z,102006.78
2022-11-14T11:57:39.406Z,102007.09
2022-11-14T12:00:14.248Z,102006.13
2022-11-14T12:02:49.400Z,102008.84
2022-11-14T12:05:47.820Z,101999.22
2022-11-14T12:09:05.449Z,102000.88
2022-11-14T12:11:34.927Z,101992.94
2022-11-14T12:14:16.665Z,101995.66
2022-11-14T12:17:14.109Z,101995.69
2022-11-14T12:20:08.942Z,101986.81
2022-11-14T12:23:10.986Z,101983.88
2022-11-14T12:25:49.323Z,101984.53
2022-11-14T12:28:43.742Z,101977.94
2022-11-14T12:31:16.811Z,101975.75
2022-11-14T12:33:56.592Z,101975.41
2022-11-14T12:36:29.146Z,101964.97
2022-11-14T12:38:56.088Z,101963.38
2022-11-14T12:41:31.517Z,101966.19
2022-11-14T12:44:27.618Z,101961.06
2022-11-14T12:47:03.561Z,101962.41
2022-11-14T12:49:52.932Z,101962.94
2022-11-14T12:52:41.235Z,101966.03
2022-11-14T12:55:26.062Z,101964.06
2022-11-14T12:58:08.896Z,101960.97
2022-11-14T13:00:44.332Z,101960.09
2022-11-14T13:03:10.837Z,101953.13
2022-11-14T13:05:49.251Z,101949.56
2022-11-14T13:08:28.163Z,101951.28
2022-11-14T13:10:54.729Z,101944.91
2022-11-14T13:13:39.998Z,101954.69
2022-11-14T13:16:39.418Z,101953.97
2022-11-14T13:19:30.691Z,101947.59
2022-11-14T13:22:12.248Z,101943.78
2022-11-14T13:25:01.120Z,101942.66
2022-11-14T13:28:00.061Z,101941.41
2022-11-14T13:30:19.524Z,101943.72
2022-11-14T13:32:45.945Z,101933.41
2022-11-14T13:35:16.194Z,101936.94
2022-11-14T13:37:45.758Z,101936.22
2022-11-14T13:40:20.695Z,101937.19
2022-11-14T13:43:01.835Z,101929.25
2022-11-14T13:45:51.683Z,101927.50
2022-11-14T13:48:46.233Z,101932.06
2022-11-14T13:51:41.742Z,101930.09
2022-11-14T13:54:03.020Z,101935.22
2022-11-14T13:56:36.046Z,101927.13
2022-11-14T13:59:21.203Z,101921.84
2022-11-14T14:02:24.651Z,101926.38
2022-11-14T14:05:04.562Z,101923.84
2022-11-14T14:07:52.831Z,101926.38
2022-11-14T14:10:38.347Z,101923.94
2022-11-14T14:13:22.267Z,101916.34
2022-11-14T14:15:49.001Z,101927.06
2022-11-14T14:18:30.636Z,101915.91
2022-11-14T14:21:22.267Z,101918.16
2022-11-14T14:23:55.000Z,101926.47
2022-11-14T14:26:45.196Z,101921.22
2022-11-14T14:29:47.113Z,101917.63
2022-11-14T14:32:15.619Z,101918.88
2022-11-14T14:34:42.202Z,101917.66
2022-11-14T14:37:23.332Z,101920.75
2022-11-14T14:40:01.020Z,101917.72
2022-11-14T14:42:34.803Z,101916.09
2022-11-14T14:45:03.140Z,101917.94
2022-11-14T14:47:32.638Z,101921.38
2022-11-14T14:50:24.003Z,101916.97
2022-11-14T14:52:59.930Z,101924.19
2022-11-14T14:55:28.801Z,101922.38
2022-11-14T14:57:55.311Z,101932.06
2022-11-14T15:00:26.277Z,101930.31
2022-11-14T15:02:56.742Z,101928.75
2022-11-14T15:05:27.825Z,101929.00
2022-11-14T15:07:59.470Z,101924.84
2022-11-14T15:10:29.936Z,101925.81
2022-11-14T15:12:57.892Z,101921.41
2022-11-14T15:15:28.231Z,101917.97
2022-11-14T15:17:56.245Z,101926.19
2022-11-14T15:20:26.403Z,101925.22
2022-11-14T15:23:12.805Z,101927.31
2022-11-14T15:25:39.309Z,101920.53
2022-11-14T15:28:17.775Z,101923.38
2022-11-14T15:30:57.076Z,101931.72
2022-11-14T15:33:34.357Z,101932.09
2022-11-14T15:36:11.311Z,101927.06
2022-11-14T15:38:45.647Z,101924.72
2022-11-14T15:41:19.824Z,101924.13
2022-11-14T15:43:48.090Z,101922.66
2022-11-14T15:46:35.826Z,101919.69
2022-11-14T15:49:17.913Z,101918.44
2022-11-14T15:51:51.812Z,101918.09
2022-11-14T15:54:27.671Z,101921.16
2022-11-14T15:56:56.339Z,101910.81
2022-11-14T15:59:23.297Z,101913.03
2022-11-14T16:01:56.668Z,101916.94
2022-11-14T16:04:30.473Z,101917.91
2022-11-14T16:06:57.053Z,101926.97
2022-11-14T16:09:23.674Z,101922.53
2022-11-14T16:11:50.286Z,101914.72
2022-11-14T16:14:16.979Z,101918.63
2022-11-14T16:16:43.531Z,101926.81
2022-11-14T16:19:14.088Z,101914.44
2022-11-14T16:21:41.947Z,101913.81
2022-11-14T16:24:22.525Z,101915.13
2022-11-14T16:26:49.510Z,101916.59
2022-11-14T16:29:16.427Z,101914.25
2022-11-14T16:31:43.673Z,101912.88
2022-11-14T16:34:19.216Z,101917.63
2022-11-14T16:36:46.174Z,101919.59
2022-11-14T16:39:14.131Z,101927.06
2022-11-14T16:41:41.592Z,101925.69
2022-11-14T16:44:13.996Z,101926.78
2022-11-14T16:46:40.472Z,101933.38
2022-11-14T16:49:06.990Z,101924.53
2022-11-14T16:51:51.675Z,101932.72
2022-11-14T16:54:19.637Z,101925.50
2022-11-14T16:56:46.944Z,101927.44
2022-11-14T16:59:13.426Z,101930.50
2022-11-14T17:01:40.071Z,101935.03
2022-11-14T17:04:06.634Z,101935.28
2022-11-14T17:06:33.707Z,101936.47
2022-11-14T17:09:00.530Z,101930.09
2022-11-14T17:11:27.748Z,101937.44
2022-11-14T17:13:55.650Z,101936.34
2022-11-14T17:16:24.244Z,101929.88
2022-11-14T17:18:54.666Z,101936.97
2022-11-14T17:21:22.446Z,101937.97
2022-11-14T17:23:57.029Z,101930.00
2022-11-14T17:26:23.998Z,101938.94
2022-11-14T17:28:50.534Z,101946.25
2022-11-14T17:31:17.740Z,101937.53
2022-11-14T17:33:44.566Z,101932.16
2022-11-14T17:36:11.724Z,101938.44
2022-11-14T17:38:38.748Z,101938.19
2022-11-14T17:41:08.688Z,101930.94
2022-11-14T17:43:39.782Z,101930.94
2022-11-14T17:46:11.182Z,101936.59
2022-11-14T17:48:42.134Z,101934.00
2022-11-14T17:51:12.220Z,101944.78
2022-11-14T17:53:39.527Z,101948.44
2022-11-14T17:56:07.743Z,101943.06
2022-11-14T17:58:34.611Z,101945.00
2022-11-14T18:01:01.226Z,101948.66
2022-11-14T18:03:28.199Z,101949.66
2022-11-14T18:06:25.736Z,101944.25
2022-11-14T18:08:52.271Z,101952.56
2022-11-14T18:11:19.858Z,101939.31
2022-11-14T18:13:46.475Z,101938.34
2022-11-14T18:16:17.992Z,101942.75
2022-11-14T18:18:44.700Z,101936.50
2022-11-14T18:21:22.626Z,101932.00
2022-11-14T18:23:59.176Z,101932.84
2022-11-14T18:26:28.402Z,101933.69
2022-11-14T18:28:58.915Z,101938.13
2022-11-14T18:31:25.921Z,101939.09
2022-11-14T18:33:52.846Z,101947.16
2022-11-14T18:36:20.137Z,101942.97
2022-11-14T18:38:46.958Z,101938.56
2022-11-14T18:41:15.499Z,101937.72
2022-11-14T18:43:43.104Z,101945.81
2022-11-14T18:46:20.730Z,101938.56
2022-11-14T18:48:52.662Z,101943.97
2022-11-14T18:51:21.573Z,101945.06
2022-11-14T18:53:48.489Z,101946.13
2022-11-14T18:56:16.893Z,101946.13
2022-11-14T18:58:44.339Z,101943.22
2022-11-14T19:01:26.507Z,101938.78
2022-11-14T19:03:56.451Z,101940.63
2022-11-14T19:06:23.112Z,101937.94
2022-11-14T19:08:50.058Z,101943.31
2022-11-14T19:11:36.468Z,101936.22
2022-11-14T19:14:05.036Z,101932.78
2022-11-14T19:16:33.025Z,101934.72
2022-11-14T19:18:59.917Z,101937.50
2022-11-14T19:21:26.837Z,101934.91
2022-11-14T19:23:56.640Z,101940.41
2022-11-14T19:26:23.548Z,101947.72
2022-11-14T19:28:50.101Z,101948.72
2022-11-14T19:31:17.086Z,101954.00
2022-11-14T19:33:45.319Z,101954.84
2022-11-14T19:36:32.329Z,101949.34
2022-11-14T19:39:04.852Z,101937.69
2022-11-14T19:41:32.315Z,101948.47
2022-11-14T19:43:59.727Z,101942.13
2022-11-14T19:46:28.725Z,101942.03
2022-11-14T19:48:56.918Z,101945.78
2022-11-14T19:51:24.159Z,101944.94
2022-11-14T19:53:53.297Z,101944.06
2022-11-14T19:56:20.620Z,101952.16
2022-11-14T19:58:49.503Z,101947.63
2022-11-14T20:01:18.576Z,101942.22
2022-11-14T20:03:45.451Z,101943.97
2022-11-14T20:06:17.984Z,101936.63
2022-11-14T20:08:44.831Z,101932.03
2022-11-14T20:11:11.778Z,101927.41
2022-11-14T20:13:40.281Z,101920.28
2022-11-14T20:16:17.255Z,101929.22
2022-11-14T20:18:45.690Z,101919.44
2022-11-14T20:21:13.558Z,101921.28
2022-11-14T20:23:40.203Z,101923.97
2022-11-14T20:26:11.207Z,101924.13
2022-11-14T20:28:39.543Z,101915.41
2022-11-14T20:31:08.603Z,101914.66
2022-11-14T20:33:40.687Z,101919.31
2022-11-14T20:36:10.211Z,101919.31
2022-11-14T20:38:37.046Z,101922.00
2022-11-14T20:41:04.198Z,101923.84
2022-11-14T20:43:31.108Z,101926.53
2022-11-14T20:46:13.099Z,101927.50
2022-11-14T20:48:40.330Z,101930.19
2022-11-14T20:51:12.684Z,101927.63
2022-11-14T20:53:39.819Z,101923.22
2022-11-14T20:56:07.286Z,101914.25
2022-11-14T20:58:34.122Z,101909.13
2022-11-14T21:01:00.892Z,101911.91
2022-11-14T21:03:27.740Z,101907.72
2022-11-14T21:05:55.350Z,101914.09
2022-11-14T21:08:21.946Z,101911.41
2022-11-14T21:10:50.692Z,101907.06
2022-11-14T21:13:40.417Z,101902.88
2022-11-14T21:16:09.766Z,101904.09
2022-11-14T21:18:38.372Z,101907.66
2022-11-14T21:21:09.579Z,101904.22
2022-11-14T21:23:36.835Z,101905.16
2022-11-14T21:26:13.469Z,101889.78
2022-11-14T21:28:42.563Z,101887.81
2022-11-14T21:31:22.271Z,101884.38
2022-11-14T21:33:51.358Z,101887.22
2022-11-14T21:39:05.798Z,101873.00
2022-11-14T21:41:33.841Z,101878.38
2022-11-14T21:44:02.167Z,101870.41
2022-11-14T21:46:29.213Z,101863.31
2022-11-14T21:48:57.232Z,101866.00
2022-11-14T21:51:28.415Z,101859.66
2022-11-14T21:54:02.663Z,101857.06
2022-11-14T21:56:31.244Z,101852.69
2022-11-14T21:59:13.857Z,101857.50
2022-11-14T22:02:07.643Z,101861.50
2022-11-14T22:04:34.825Z,101868.09
2022-11-14T22:07:02.436Z,101870.56
2022-11-14T22:09:29.540Z,101862.59
2022-11-14T22:11:56.207Z,101873.34
2022-11-14T22:14:23.109Z,101867.97
2022-11-14T22:16:49.555Z,101860.78
2022-11-14T22:19:16.097Z,101861.72
2022-11-14T22:21:42.791Z,101862.59
2022-11-14T22:24:09.305Z,101855.16
2022-11-14T22:26:39.712Z,101855.91
2022-11-14T22:29:07.266Z,101854.91
2022-11-14T22:31:33.896Z,101848.59
2022-11-14T22:34:00.399Z,101859.34
2022-11-14T22:36:27.715Z,101850.19
2022-11-14T22:38:56.041Z,101863.53
2022-11-14T22:41:32.783Z,101859.00
2022-11-14T22:44:00.405Z,101861.81
2022-11-14T22:46:27.613Z,101865.47
2022-11-14T22:48:54.831Z,101863.53
2022-11-14T22:51:26.488Z,101862.56
2022-11-14T22:53:57.822Z,101856.22
2022-11-14T22:56:27.134Z,101864.19
2022-11-14T22:58:53.614Z,101858.91
2022-11-14T23:01:24.194Z,101865.25
2022-11-14T23:03:56.053Z,101863.31
2022-11-14T23:06:22.741Z,101862.25
2022-11-14T23:08:49.757Z,101865.69
2022-11-14T23:11:21.332Z,101868.38
2022-11-14T23:13:50.232Z,101868.25
2022-11-14T23:16:19.023Z,101865.69
2022-11-14T23:18:46.258Z,101864.81
2022-11-14T23:21:20.852Z,101863.19
2022-11-14T23:23:55.578Z,101858.81
2022-11-14T23:26:22.466Z,101851.78
2022-11-14T23:28:49.250Z,101856.22
2022-11-14T23:31:19.227Z,101853.53
2022-11-14T23:33:51.902Z,101847.06
2022-11-14T23:36:18.433Z,101852.22
2022-11-14T23:38:45.063Z,101835.94
2022-11-14T23:41:17.049Z,101845.53
2022-11-14T23:43:43.390Z,101839.28
2022-11-14T23:46:09.902Z,101839.19
2022-11-14T23:48:36.430Z,101838.09
2022-11-14T23:51:03.225Z,101832.72
2022-11-14T23:53:30.272Z,101831.72
2022-11-14T23:55:59.144Z,101837.09
2022-11-14T23:58:26.398Z,101832.59
